createdAt,value
2022-12-23T00:01:55.243Z,25.42
2022-12-23T00:04:23.196Z,25.08
2022-12-23T00:06:51.035Z,26.33
2022-12-23T00:09:18.325Z,25.45
2022-12-23T00:12:04.533Z,25.33
2022-12-23T00:14:50.882Z,25.98
2022-12-23T00:17:22.715Z,26.20
2022-12-23T00:19:51.073Z,26.38
2022-12-23T00:22:18.926Z,27.38
2022-12-23T00:24:46.574Z,26.90
2022-12-23T00:27:14.361Z,27.58
2022-12-23T00:29:41.893Z,27.65
2022-12-23T00:32:09.534Z,27.88
2022-12-23T00:34:37.050Z,26.15
2022-12-23T00:37:04.631Z,25.08
2022-12-23T00:39:54.735Z,27.73
2022-12-23T00:42:41.309Z,27.98
2022-12-23T00:45:21.420Z,26.88
2022-12-23T00:48:07.709Z,26.67
2022-12-23T00:50:39.919Z,27.80
2022-12-23T00:53:07.437Z,28.20
2022-12-23T00:55:34.830Z,27.00
2022-12-23T00:58:02.328Z,27.27
2022-12-23T01:00:48.177Z,27.75
2022-12-23T01:03:34.201Z,27.60
2022-12-23T01:06:02.868Z,27.02
2022-12-23T01:08:30.657Z,27.08
2022-12-23T01:11:03.448Z,29.35
2022-12-23T01:16:14.947Z,27.58
2022-12-23T01:18:44.955Z,29.35
2022-12-23T01:21:12.436Z,27.40
2022-12-23T01:23:40.212Z,27.77
2022-12-23T01:26:08.788Z,28.67
2022-12-23T01:28:36.653Z,28.50
2022-12-23T01:31:05.750Z,28.13
2022-12-23T01:33:34.140Z,29.35
2022-12-23T01:36:07.032Z,29.65
2022-12-23T01:38:35.490Z,28.23
2022-12-23T01:41:02.976Z,27.90
2022-12-23T01:43:50.578Z,28.77
2022-12-23T01:46:19.253Z,28.77
2022-12-23T01:48:51.545Z,29.48
2022-12-23T01:51:26.529Z,30.90
2022-12-23T01:54:01.205Z,28.83
2022-12-23T01:56:38.762Z,29.60
2022-12-23T01:59:09.966Z,30.02
2022-12-23T02:01:55.918Z,29.25
2022-12-23T02:04:25.075Z,29.55
2022-12-23T02:07:10.768Z,28.75
2022-12-23T02:09:39.948Z,31.13
2022-12-23T02:12:25.848Z,31.30
2022-12-23T02:15:50.764Z,27.67
2022-12-23T02:18:21.358Z,30.90
2022-12-23T02:21:00.785Z,29.42
2022-12-23T02:24:12.631Z,29.60
2022-12-23T02:27:01.735Z,28.90
2022-12-23T02:29:53.608Z,29.10
2022-12-23T02:32:33.621Z,29.88
2022-12-23T02:35:07.388Z,27.30
2022-12-23T02:37:40.908Z,28.05
2022-12-23T02:40:20.830Z,28.08
2022-12-23T02:42:56.626Z,28.00
2022-12-23T02:45:28.291Z,26.00
2022-12-23T02:48:03.962Z,27.17
2022-12-23T02:50:33.996Z,25.70
2022-12-23T02:53:06.478Z,28.05
2022-12-23T02:55:35.531Z,27.70
2022-12-23T02:58:06.624Z,26.23
2022-12-23T03:00:34.425Z,25.92
2022-12-23T03:03:01.929Z,26.75
2022-12-23T03:05:34.570Z,26.40
2022-12-23T03:08:04.491Z,25.85
2022-12-23T03:10:37.811Z,25.90
2022-12-23T03:13:43.067Z,27.27
2022-12-23T03:16:47.639Z,25.95
2022-12-23T03:19:26.682Z,26.58
2022-12-23T03:21:56.175Z,25.27
2022-12-23T03:24:45.535Z,25.98
2022-12-23T03:27:36.457Z,25.13
2022-12-23T03:30:08.263Z,24.98
2022-12-23T03:32:48.271Z,24.60
2022-12-23T03:35:18.572Z,26.52
2022-12-23T03:37:49.853Z,26.42
2022-12-23T03:40:20.661Z,25.15
2022-12-23T03:42:53.031Z,24.63
2022-12-23T03:45:39.287Z,23.67
2022-12-23T03:48:14.654Z,24.30
2022-12-23T03:50:43.439Z,22.67
2022-12-23T03:53:14.931Z,22.55
2022-12-23T03:55:51.933Z,21.85
2022-12-23T03:58:22.126Z,20.92
2022-12-23T04:00:59.059Z,21.52
2022-12-23T04:03:37.400Z,22.88
2022-12-23T04:06:06.472Z,22.90
2022-12-23T04:08:36.285Z,22.10
2022-12-23T04:11:04.567Z,20.13
2022-12-23T04:13:32.262Z,22.08
2022-12-23T04:16:01.688Z,21.27
2022-12-23T04:18:29.282Z,21.65
2022-12-23T04:20:56.898Z,20.63
2022-12-23T04:23:24.147Z,19.70
2022-12-23T04:25:51.816Z,19.55
2022-12-23T04:28:19.181Z,20.48
2022-12-23T04:30:46.832Z,20.02
2022-12-23T04:33:14.161Z,20.05
2022-12-23T04:35:41.650Z,21.38
2022-12-23T04:38:08.845Z,19.27
2022-12-23T04:40:36.505Z,18.88
2022-12-23T04:43:03.839Z,18.65
2022-12-23T04:45:32.558Z,18.35
2022-12-23T04:47:59.826Z,18.60
2022-12-23T04:50:27.358Z,19.10
2022-12-23T04:52:54.743Z,18.25
2022-12-23T04:55:22.536Z,17.33
2022-12-23T04:57:49.958Z,18.25
2022-12-23T05:00:18.269Z,17.15
2022-12-23T05:02:45.742Z,18.25
2022-12-23T05:05:13.580Z,16.90
2022-12-23T05:07:40.816Z,17.92
2022-12-23T05:10:09.131Z,17.65
2022-12-23T05:12:36.444Z,17.05
2022-12-23T05:15:04.327Z,16.95
2022-12-23T05:17:31.525Z,19.77
2022-12-23T05:19:58.973Z,17.48
2022-12-23T05:22:26.172Z,17.30
2022-12-23T05:24:53.735Z,17.05
2022-12-23T05:27:20.970Z,17.55
2022-12-23T05:29:48.598Z,18.65
2022-12-23T05:32:44.754Z,19.45
2022-12-23T05:35:12.246Z,18.95
2022-12-23T05:37:39.494Z,18.85
2022-12-23T05:40:07.678Z,17.85
2022-12-23T05:42:35.246Z,18.60
2022-12-23T05:45:03.004Z,18.90
2022-12-23T05:47:30.302Z,17.88
2022-12-23T05:49:57.482Z,17.67
2022-12-23T05:52:25.860Z,18.17
2022-12-23T05:54:53.619Z,18.63
2022-12-23T05:57:20.979Z,19.75
2022-12-23T05:59:48.648Z,19.38
2022-12-23T06:02:16.088Z,19.70
2022-12-23T06:04:43.945Z,20.17
2022-12-23T06:07:11.477Z,19.67
2022-12-23T06:09:39.029Z,20.98
2022-12-23T06:12:06.404Z,20.92
2022-12-23T06:14:34.099Z,20.58
2022-12-23T06:17:01.563Z,19.63
2022-12-23T06:19:29.186Z,21.60
2022-12-23T06:21:56.687Z,21.15
2022-12-23T06:24:24.279Z,22.23
2022-12-23T06:26:56.811Z,21.85
2022-12-23T06:29:25.251Z,21.88
2022-12-23T06:31:52.488Z,23.50
2022-12-23T06:34:20.274Z,22.60
2022-12-23T06:36:47.438Z,22.38
2022-12-23T06:39:15.134Z,23.13
2022-12-23T06:41:42.366Z,22.55
2022-12-23T06:44:10.374Z,25.08
2022-12-23T06:46:37.785Z,24.38
2022-12-23T06:49:12.572Z,25.67
2022-12-23T06:51:41.365Z,26.08
2022-12-23T06:54:11.935Z,24.83
2022-12-23T06:56:39.850Z,25.83
2022-12-23T06:59:07.056Z,27.50
2022-12-23T07:01:34.816Z,26.33
2022-12-23T07:04:03.133Z,26.30
2022-12-23T07:06:30.755Z,25.65
2022-12-23T07:08:58.034Z,24.50
2022-12-23T07:11:25.597Z,25.65
2022-12-23T07:13:52.810Z,25.23
2022-12-23T07:16:20.321Z,26.05
2022-12-23T07:18:47.673Z,24.98
2022-12-23T07:21:22.921Z,26.77
2022-12-23T07:23:54.010Z,26.58
2022-12-23T07:26:21.656Z,26.98
2022-12-23T07:28:49.272Z,27.40
2022-12-23T07:31:17.163Z,25.42
2022-12-23T07:33:44.777Z,26.58
2022-12-23T07:36:13.056Z,24.50
2022-12-23T07:38:40.210Z,26.25
2022-12-23T07:41:07.842Z,25.45
2022-12-23T07:43:35.569Z,23.92
2022-12-23T07:46:08.134Z,24.77
2022-12-23T07:48:35.716Z,25.13
2022-12-23T07:51:04.103Z,23.88
2022-12-23T07:53:31.659Z,25.65
2022-12-23T07:55:59.397Z,25.02
2022-12-23T07:58:26.603Z,25.33
2022-12-23T08:01:08.223Z,25.15
2022-12-23T08:03:35.668Z,25.33
2022-12-23T08:06:09.180Z,23.45
2022-12-23T08:11:05.439Z,24.13
2022-12-23T08:13:34.727Z,24.55
2022-12-23T08:16:03.748Z,26.10
2022-12-23T08:18:34.528Z,26.05
2022-12-23T08:21:16.820Z,27.15
2022-12-23T08:23:44.201Z,24.10
2022-12-23T08:26:16.841Z,25.55
2022-12-23T08:28:44.902Z,24.95
2022-12-23T08:31:15.556Z,25.67
2022-12-23T08:33:45.112Z,24.77
2022-12-23T08:36:22.839Z,26.63
2022-12-23T08:38:52.969Z,26.90
2022-12-23T08:41:23.453Z,24.63
2022-12-23T08:43:51.493Z,25.27
2022-12-23T08:46:19.750Z,24.70
2022-12-23T08:48:49.648Z,23.98
2022-12-23T08:51:19.292Z,24.48
2022-12-23T08:53:46.775Z,24.23
2022-12-23T08:56:18.074Z,24.42
2022-12-23T08:58:47.188Z,24.65
2022-12-23T09:01:17.598Z,24.42
2022-12-23T09:03:45.442Z,24.25
2022-12-23T09:06:16.028Z,25.00
2022-12-23T09:08:43.670Z,23.95
2022-12-23T09:11:20.104Z,24.40
2022-12-23T09:13:48.203Z,24.88
2022-12-23T09:16:16.231Z,25.77
2022-12-23T09:18:43.597Z,24.02
2022-12-23T09:21:17.009Z,23.95
2022-12-23T09:26:18.689Z,23.63
2022-12-23T09:28:46.009Z,23.35
2022-12-23T09:31:14.323Z,22.90
2022-12-23T09:33:41.844Z,22.27
2022-12-23T09:36:09.575Z,22.77
2022-12-23T09:38:37.086Z,23.95
2022-12-23T09:41:32.226Z,23.40
2022-12-23T09:44:24.310Z,22.67
2022-12-23T09:46:55.294Z,21.80
2022-12-23T09:49:23.893Z,22.40
2022-12-23T09:51:54.266Z,21.40
2022-12-23T09:54:24.106Z,23.00
2022-12-23T09:56:54.293Z,23.08
2022-12-23T09:59:30.764Z,22.85
2022-12-23T10:02:06.413Z,24.60
2022-12-23T10:05:00.222Z,24.02
2022-12-23T10:07:37.905Z,23.10
2022-12-23T10:10:15.101Z,23.10
2022-12-23T10:12:45.760Z,21.67
2022-12-23T10:15:35.286Z,25.00
2022-12-23T10:18:10.816Z,22.70
2022-12-23T10:20:44.889Z,23.63
2022-12-23T10:23:19.495Z,22.48
2022-12-23T10:25:51.875Z,23.98
2022-12-23T10:28:19.914Z,22.35
2022-12-23T10:31:23.923Z,23.17
2022-12-23T10:34:11.451Z,23.55
2022-12-23T10:36:45.766Z,22.45
2022-12-23T10:39:31.868Z,22.85
2022-12-23T10:42:23.679Z,22.63
2022-12-23T10:45:01.508Z,24.55
2022-12-23T10:47:49.359Z,24.50
2022-12-23T10:50:36.083Z,24.58
2022-12-23T10:53:08.388Z,23.40
2022-12-23T10:55:38.586Z,23.88
2022-12-23T10:58:18.513Z,26.00
2022-12-23T11:00:50.301Z,27.95
2022-12-23T11:03:17.879Z,34.30
2022-12-23T11:05:46.477Z,36.97
2022-12-23T11:08:13.897Z,29.13
2022-12-23T11:10:41.765Z,31.50
2022-12-23T11:13:09.203Z,27.95
2022-12-23T11:15:39.339Z,29.13
2022-12-23T11:18:26.742Z,25.13
2022-12-23T11:21:07.155Z,23.55
2022-12-23T11:23:36.804Z,27.70
2022-12-23T11:26:08.613Z,25.67
2022-12-23T11:28:38.993Z,24.75
2022-12-23T11:31:11.953Z,25.90
2022-12-23T11:33:56.910Z,22.30
2022-12-23T11:36:27.853Z,23.70
2022-12-23T11:39:08.137Z,27.17
2022-12-23T11:41:42.614Z,23.40
2022-12-23T11:44:30.936Z,24.92
2022-12-23T11:46:58.713Z,24.58
2022-12-23T11:49:28.113Z,23.65
2022-12-23T11:52:07.870Z,23.38
2022-12-23T11:54:35.396Z,25.15
2022-12-23T11:57:06.120Z,24.33
2022-12-23T11:59:37.024Z,25.85
2022-12-23T12:02:36.825Z,25.75
2022-12-23T12:05:22.579Z,26.17
2022-12-23T12:07:51.191Z,25.17
2022-12-23T12:10:31.684Z,26.20
2022-12-23T12:13:05.710Z,24.13
2022-12-23T12:16:08.397Z,25.05
2022-12-23T12:18:36.587Z,25.73
2022-12-23T12:21:11.401Z,25.73
2022-12-23T12:23:47.029Z,26.65
2022-12-23T12:26:34.790Z,26.05
2022-12-23T12:29:27.428Z,26.02
2022-12-23T12:31:57.908Z,27.77
2022-12-23T12:34:40.919Z,27.88
2022-12-23T12:40:14.031Z,27.00
2022-12-23T12:42:43.266Z,26.92
2022-12-23T12:45:18.337Z,26.48
2022-12-23T12:48:13.074Z,26.60
2022-12-23T12:50:54.991Z,28.98
2022-12-23T12:53:22.918Z,29.17
2022-12-23T12:56:01.194Z,27.60
2022-12-23T12:58:28.687Z,28.23
2022-12-23T13:01:21.037Z,30.50
2022-12-23T13:04:13.286Z,31.13
2022-12-23T13:07:22.565Z,30.80
2022-12-23T13:09:52.826Z,31.25
2022-12-23T13:12:46.416Z,32.50
2022-12-23T13:15:24.091Z,33.55
2022-12-23T13:18:10.998Z,34.08
2022-12-23T13:21:09.480Z,33.80
2022-12-23T13:23:48.536Z,33.42
2022-12-23T13:26:26.995Z,32.30
2022-12-23T13:29:14.139Z,33.13
2022-12-23T13:31:44.343Z,33.20
2022-12-23T13:34:24.146Z,32.50
2022-12-23T13:37:06.673Z,32.05
2022-12-23T13:39:46.969Z,32.45
2022-12-23T13:42:20.948Z,31.70
2022-12-23T13:44:48.576Z,30.88
2022-12-23T13:47:26.196Z,32.38
2022-12-23T13:50:20.667Z,32.25
2022-12-23T13:52:53.857Z,34.42
2022-12-23T13:55:33.532Z,33.83
2022-12-23T13:58:11.329Z,33.38
2022-12-23T14:00:38.845Z,34.03
2022-12-23T14:03:18.478Z,34.95
2022-12-23T14:05:50.951Z,33.60
2022-12-23T14:08:27.484Z,34.90
2022-12-23T14:10:57.717Z,35.63
2022-12-23T14:13:49.773Z,35.25
2022-12-23T14:16:26.580Z,42.00
2022-12-23T14:19:06.657Z,47.08
2022-12-23T14:22:05.798Z,35.42
2022-12-23T14:25:14.641Z,35.53
2022-12-23T14:28:19.803Z,33.67
2022-12-23T14:30:47.219Z,32.65
2022-12-23T14:33:23.664Z,30.75
2022-12-23T14:35:54.792Z,31.63
2022-12-23T14:38:32.873Z,31.10
2022-12-23T14:41:20.311Z,30.60
2022-12-23T14:43:56.249Z,30.77
2022-12-23T14:46:38.857Z,28.77
2022-12-23T14:49:44.338Z,29.27
2022-12-23T14:52:42.461Z,28.70
2022-12-23T14:55:32.568Z,28.63
2022-12-23T14:58:08.918Z,27.85
2022-12-23T15:00:46.827Z,26.42
2022-12-23T15:03:14.292Z,25.70
2022-12-23T15:05:42.859Z,25.80
2022-12-23T15:08:30.780Z,27.90
2022-12-23T15:10:59.638Z,27.50
2022-12-23T15:13:28.406Z,26.08
2022-12-23T15:16:01.322Z,26.40
2022-12-23T15:21:05.128Z,26.02
2022-12-23T15:23:33.560Z,24.80
2022-12-23T15:26:01.745Z,24.63
2022-12-23T15:28:39.960Z,25.25
2022-12-23T15:31:20.987Z,25.40
2022-12-23T15:34:05.597Z,23.70
2022-12-23T15:36:37.270Z,25.33
2022-12-23T15:39:25.668Z,24.33
2022-12-23T15:41:53.296Z,23.67
2022-12-23T15:44:26.787Z,26.42
2022-12-23T15:46:54.618Z,24.35
2022-12-23T15:49:22.067Z,24.23
2022-12-23T15:52:08.027Z,22.67
2022-12-23T15:54:44.640Z,23.75
2022-12-23T15:57:17.557Z,23.05
2022-12-23T15:59:44.997Z,24.23
2022-12-23T16:02:59.226Z,22.55
2022-12-23T16:05:09.825Z,22.75
2022-12-23T16:07:42.283Z,23.15
2022-12-23T16:10:30.710Z,24.02
2022-12-23T16:12:59.192Z,23.65
2022-12-23T16:15:33.589Z,24.30
2022-12-23T16:18:24.386Z,22.95
2022-12-23T16:20:54.443Z,24.33
2022-12-23T16:23:22.677Z,23.23
2022-12-23T16:25:52.135Z,25.85
2022-12-23T16:28:24.347Z,23.42
2022-12-23T16:30:56.791Z,23.45
2022-12-23T16:33:36.487Z,24.75
2022-12-23T16:36:25.630Z,23.23
2022-12-23T16:38:59.140Z,23.10
2022-12-23T16:41:26.629Z,23.33
2022-12-23T16:43:54.323Z,23.05
2022-12-23T16:46:23.365Z,24.27
2022-12-23T16:48:59.465Z,24.38
2022-12-23T16:51:28.741Z,23.05
2022-12-23T16:53:57.686Z,23.80
2022-12-23T16:56:28.589Z,25.30
2022-12-23T16:58:55.969Z,25.90
2022-12-23T17:01:30.112Z,26.33
2022-12-23T17:03:57.671Z,25.73
2022-12-23T17:06:25.649Z,26.23
2022-12-23T17:08:53.475Z,26.40
2022-12-23T17:11:30.086Z,24.35
2022-12-23T17:14:03.869Z,25.05
2022-12-23T17:16:32.972Z,25.58
2022-12-23T17:19:00.425Z,25.05
2022-12-23T17:21:34.014Z,24.33
2022-12-23T17:24:22.069Z,24.02
2022-12-23T17:26:50.385Z,24.63
2022-12-23T17:29:17.809Z,26.35
2022-12-23T17:31:47.232Z,27.30
2022-12-23T17:34:25.197Z,50.28
2022-12-23T17:36:53.692Z,44.50
2022-12-23T17:39:22.541Z,36.20
2022-12-23T17:41:51.022Z,34.90
2022-12-23T17:44:19.335Z,35.75
2022-12-23T17:46:47.652Z,59.35
2022-12-23T17:49:17.566Z,39.13
2022-12-23T17:51:45.942Z,35.67
2022-12-23T17:54:23.398Z,38.58
2022-12-23T17:56:52.906Z,32.28
2022-12-23T17:59:21.995Z,37.20
2022-12-23T18:01:50.723Z,31.65
2022-12-23T18:04:19.236Z,35.22
2022-12-23T18:06:47.144Z,30.80
2022-12-23T18:09:15.524Z,32.55
2022-12-23T18:11:45.591Z,37.15
2022-12-23T18:14:17.689Z,35.00
2022-12-23T18:16:48.014Z,35.25
2022-12-23T18:19:19.547Z,33.00
2022-12-23T18:21:48.168Z,31.65
2022-12-23T18:24:16.703Z,28.67
2022-12-23T18:26:45.137Z,30.10
2022-12-23T18:29:13.556Z,32.20
2022-12-23T18:31:51.215Z,31.08
2022-12-23T18:34:20.627Z,29.50
2022-12-23T18:36:48.717Z,28.23
2022-12-23T18:39:18.087Z,25.85
2022-12-23T18:41:45.853Z,27.20
2022-12-23T18:44:20.801Z,24.75
2022-12-23T18:46:49.683Z,25.45
2022-12-23T18:49:17.937Z,26.10
2022-12-23T18:51:46.465Z,25.45
2022-12-23T18:54:16.107Z,26.77
2022-12-23T18:56:44.086Z,27.73
2022-12-23T18:59:29.687Z,26.25
2022-12-23T19:01:58.307Z,27.10
2022-12-23T19:04:27.693Z,26.75
2022-12-23T19:06:57.460Z,26.63
2022-12-23T19:09:26.250Z,27.98
2022-12-23T19:11:54.456Z,27.17
2022-12-23T19:14:22.732Z,26.83
2022-12-23T19:16:52.314Z,27.73
2022-12-23T19:19:21.672Z,27.45
2022-12-23T19:21:49.326Z,28.25
2022-12-23T19:24:17.829Z,28.08
2022-12-23T19:26:45.754Z,29.08
2022-12-23T19:29:13.998Z,29.33
2022-12-23T19:31:42.000Z,27.15
2022-12-23T19:34:15.117Z,29.25
2022-12-23T19:36:44.327Z,29.27
2022-12-23T19:39:16.948Z,30.73
2022-12-23T19:41:45.956Z,30.10
2022-12-23T19:44:14.798Z,30.20
2022-12-23T19:46:42.687Z,32.25
2022-12-23T19:49:19.276Z,32.92
2022-12-23T19:51:48.070Z,32.80
2022-12-23T19:54:17.766Z,34.22
2022-12-23T19:56:46.355Z,33.97
2022-12-23T19:59:15.064Z,31.73
2022-12-23T20:01:43.075Z,33.22
2022-12-23T20:04:12.762Z,31.23
2022-12-23T20:06:41.319Z,31.70
2022-12-23T20:09:13.144Z,30.58
2022-12-23T20:11:44.848Z,29.80
2022-12-23T20:14:16.193Z,30.58
2022-12-23T20:16:44.061Z,30.42
2022-12-23T20:19:12.693Z,29.58
2022-12-23T20:21:40.750Z,27.98
2022-12-23T20:24:10.130Z,27.88
2022-12-23T20:26:38.431Z,28.23
2022-12-23T20:29:06.758Z,26.25
2022-12-23T20:31:35.659Z,29.40
2022-12-23T20:34:07.603Z,30.73
2022-12-23T20:36:36.242Z,30.17
2022-12-23T20:39:04.295Z,31.08
2022-12-23T20:41:31.909Z,28.52
2022-12-23T20:46:46.584Z,26.73
2022-12-23T20:49:13.999Z,27.50
2022-12-23T20:51:41.140Z,28.88
2022-12-23T20:54:09.350Z,30.00
2022-12-23T20:56:36.637Z,28.20
2022-12-23T20:59:04.171Z,28.38
2022-12-23T21:01:37.905Z,28.08
2022-12-23T21:04:07.957Z,27.52
2022-12-23T21:06:35.596Z,28.45
2022-12-23T21:09:05.095Z,27.30
2022-12-23T21:11:34.259Z,28.15
2022-12-23T21:14:06.204Z,27.95
2022-12-23T21:16:35.992Z,27.65
2022-12-23T21:19:05.162Z,30.02
2022-12-23T21:21:32.404Z,30.80
2022-12-23T21:24:01.588Z,29.20
2022-12-23T21:26:29.533Z,31.58
2022-12-23T21:28:59.532Z,27.08
2022-12-23T21:31:28.431Z,30.00
2022-12-23T21:33:56.455Z,27.98
2022-12-23T21:36:29.275Z,28.23
2022-12-23T21:38:57.358Z,29.08
2022-12-23T21:41:30.275Z,28.50
2022-12-23T21:43:58.707Z,28.42
2022-12-23T21:46:27.081Z,28.08
2022-12-23T21:48:58.827Z,29.33
2022-12-23T21:51:35.037Z,29.02
2022-12-23T21:54:06.477Z,29.15
2022-12-23T21:56:34.046Z,30.83
2022-12-23T21:59:05.276Z,30.70
2022-12-23T22:01:33.303Z,30.52
2022-12-23T22:04:00.886Z,29.00
2022-12-23T22:06:39.460Z,29.88
2022-12-23T22:09:07.859Z,30.30
2022-12-23T22:11:36.466Z,30.25
2022-12-23T22:14:06.539Z,30.88
2022-12-23T22:16:34.883Z,30.63
2022-12-23T22:19:04.201Z,30.67
2022-12-23T22:21:33.170Z,32.55
2022-12-23T22:24:01.180Z,32.65
2022-12-23T22:26:31.009Z,30.35
2022-12-23T22:29:00.703Z,30.85
2022-12-23T22:31:30.879Z,33.65
2022-12-23T22:33:58.973Z,31.52
2022-12-23T22:36:26.398Z,33.33
2022-12-23T22:38:56.340Z,33.55
2022-12-23T22:41:24.499Z,36.17
2022-12-23T22:43:52.061Z,38.15
2022-12-23T22:46:19.389Z,41.30
2022-12-23T22:48:46.933Z,35.88
2022-12-23T22:51:16.304Z,34.75
2022-12-23T22:53:43.840Z,37.38
2022-12-23T22:56:13.082Z,36.22
2022-12-23T22:58:40.838Z,36.70
2022-12-23T23:01:21.175Z,35.47
2022-12-23T23:03:51.202Z,35.63
2022-12-23T23:06:18.887Z,34.35
2022-12-23T23:08:46.371Z,34.65
2022-12-23T23:11:13.380Z,36.17
2022-12-23T23:13:40.859Z,34.60
2022-12-23T23:16:08.128Z,34.40
2022-12-23T23:18:35.619Z,32.45
2022-12-23T23:21:02.789Z,36.22
2022-12-23T23:23:30.116Z,34.97
2022-12-23T23:25:57.225Z,38.25
2022-12-23T23:28:24.747Z,37.22
2022-12-23T23:31:03.779Z,35.35
2022-12-23T23:33:39.306Z,34.45
2022-12-23T23:36:07.083Z,34.95
2022-12-23T23:38:35.340Z,34.55
2022-12-23T23:41:02.874Z,34.42
2022-12-23T23:43:30.198Z,34.10
2022-12-23T23:45:57.372Z,32.70
2022-12-23T23:48:24.619Z,32.60
2022-12-23T23:50:51.853Z,34.65
2022-12-23T23:53:19.349Z,34.13
2022-12-23T23:55:46.419Z,32.75
2022-12-23T23:58:13.807Z,34.38
